sensor_id;sensor_type;location;lat;lon;timestamp;P1;durP1;ratioP1;P2;durP2;ratioP2
20093;SDS011;10206;48.012;10.030;2022-12-07T00:01:16;50.30;;;26.30;;
20093;SDS011;10206;48.012;10.030;2022-12-07T00:03:45;65.83;;;31.20;;
20093;SDS011;10206;48.012;10.030;2022-12-07T00:06:13;55.93;;;26.93;;
20093;SDS011;10206;48.012;10.030;2022-12-07T00:08:40;48.57;;;23.13;;
20093;SDS011;10206;48.012;10.030;2022-12-07T00:11:11;52.07;;;24.83;;
20093;SDS011;10206;48.012;10.030;2022-12-07T00:13:39;36.53;;;19.60;;
20093;SDS011;10206;48.012;10.030;2022-12-07T00:16:07;51.23;;;26.03;;
20093;SDS011;10206;48.012;10.030;2022-12-07T00:18:35;43.03;;;21.97;;
20093;SDS011;10206;48.012;10.030;2022-12-07T00:21:15;72.80;;;31.47;;
20093;SDS011;10206;48.012;10.030;2022-12-07T00:23:46;63.50;;;28.10;;
20093;SDS011;10206;48.012;10.030;2022-12-07T00:26:16;41.13;;;22.67;;
20093;SDS011;10206;48.012;10.030;2022-12-07T00:28:47;49.53;;;25.23;;
20093;SDS011;10206;48.012;10.030;2022-12-07T00:31:15;43.97;;;22.77;;
20093;SDS011;10206;48.012;10.030;2022-12-07T00:33:43;36.57;;;19.33;;
20093;SDS011;10206;48.012;10.030;2022-12-07T00:36:11;36.13;;;18.17;;
20093;SDS011;10206;48.012;10.030;2022-12-07T00:38:39;31.40;;;16.60;;
20093;SDS011;10206;48.012;10.030;2022-12-07T00:41:10;31.10;;;16.43;;
20093;SDS011;10206;48.012;10.030;2022-12-07T00:43:38;31.70;;;16.03;;
20093;SDS011;10206;48.012;10.030;2022-12-07T00:46:05;29.70;;;16.17;;
20093;SDS011;10206;48.012;10.030;2022-12-07T00:48:31;24.67;;;14.70;;
20093;SDS011;10206;48.012;10.030;2022-12-07T00:50:57;26.13;;;15.23;;
20093;SDS011;10206;48.012;10.030;2022-12-07T00:53:24;21.83;;;13.57;;
20093;SDS011;10206;48.012;10.030;2022-12-07T00:55:50;25.23;;;14.70;;
20093;SDS011;10206;48.012;10.030;2022-12-07T00:58:17;23.00;;;14.20;;
20093;SDS011;10206;48.012;10.030;2022-12-07T01:00:44;22.17;;;14.03;;
20093;SDS011;10206;48.012;10.030;2022-12-07T01:03:11;23.47;;;14.40;;
20093;SDS011;10206;48.012;10.030;2022-12-07T01:05:39;22.57;;;13.53;;
20093;SDS011;10206;48.012;10.030;2022-12-07T01:08:06;19.83;;;12.83;;
20093;SDS011;10206;48.012;10.030;2022-12-07T01:10:33;18.37;;;12.23;;
20093;SDS011;10206;48.012;10.030;2022-12-07T01:12:59;18.83;;;12.23;;
20093;SDS011;10206;48.012;10.030;2022-12-07T01:15:25;17.80;;;11.53;;
20093;SDS011;10206;48.012;10.030;2022-12-07T01:17:51;17.97;;;12.20;;
20093;SDS011;10206;48.012;10.030;2022-12-07T01:20:19;19.03;;;12.40;;
20093;SDS011;10206;48.012;10.030;2022-12-07T01:22:45;19.80;;;12.60;;
20093;SDS011;10206;48.012;10.030;2022-12-07T01:25:11;19.70;;;13.00;;
20093;SDS011;10206;48.012;10.030;2022-12-07T01:27:37;21.13;;;12.60;;
20093;SDS011;10206;48.012;10.030;2022-12-07T01:30:04;19.77;;;12.70;;
20093;SDS011;10206;48.012;10.030;2022-12-07T01:32:31;20.00;;;12.97;;
20093;SDS011;10206;48.012;10.030;2022-12-07T01:34:58;18.47;;;12.57;;
20093;SDS011;10206;48.012;10.030;2022-12-07T01:37:24;18.87;;;12.50;;
20093;SDS011;10206;48.012;10.030;2022-12-07T01:39:51;18.80;;;11.27;;
20093;SDS011;10206;48.012;10.030;2022-12-07T01:42:18;19.27;;;12.30;;
20093;SDS011;10206;48.012;10.030;2022-12-07T01:45:14;17.20;;;11.13;;
20093;SDS011;10206;48.012;10.030;2022-12-07T01:47:43;17.27;;;11.33;;
20093;SDS011;10206;48.012;10.030;2022-12-07T01:50:20;17.87;;;12.40;;
20093;SDS011;10206;48.012;10.030;2022-12-07T01:52:50;18.87;;;11.93;;
20093;SDS011;10206;48.012;10.030;2022-12-07T01:55:17;19.87;;;12.30;;
20093;SDS011;10206;48.012;10.030;2022-12-07T01:57:45;17.43;;;11.63;;
20093;SDS011;10206;48.012;10.030;2022-12-07T02:00:14;16.43;;;11.30;;
20093;SDS011;10206;48.012;10.030;2022-12-07T02:03:28;18.70;;;11.53;;
20093;SDS011;10206;48.012;10.030;2022-12-07T02:05:31;16.67;;;11.30;;
20093;SDS011;10206;48.012;10.030;2022-12-07T02:07:58;18.27;;;12.60;;
20093;SDS011;10206;48.012;10.030;2022-12-07T02:10:26;18.93;;;12.30;;
20093;SDS011;10206;48.012;10.030;2022-12-07T02:12:55;15.50;;;10.93;;
20093;SDS011;10206;48.012;10.030;2022-12-07T02:15:45;18.40;;;12.07;;
20093;SDS011;10206;48.012;10.030;2022-12-07T02:24:03;23.00;;;15.23;;
20093;SDS011;10206;48.012;10.030;2022-12-07T02:29:32;20.70;;;13.73;;
20093;SDS011;10206;48.012;10.030;2022-12-07T02:34:49;18.60;;;12.37;;
20093;SDS011;10206;48.012;10.030;2022-12-07T02:38:35;19.80;;;12.77;;
20093;SDS011;10206;48.012;10.030;2022-12-07T02:40:53;17.17;;;11.80;;
20093;SDS011;10206;48.012;10.030;2022-12-07T02:46:20;16.00;;;10.13;;
20093;SDS011;10206;48.012;10.030;2022-12-07T02:48:51;15.20;;;10.40;;
20093;SDS011;10206;48.012;10.030;2022-12-07T02:51:20;16.07;;;10.60;;
20093;SDS011;10206;48.012;10.030;2022-12-07T02:53:47;14.07;;;10.03;;
20093;SDS011;10206;48.012;10.030;2022-12-07T02:56:17;24.30;;;16.43;;
20093;SDS011;10206;48.012;10.030;2022-12-07T02:59:03;23.50;;;16.10;;
20093;SDS011;10206;48.012;10.030;2022-12-07T03:19:03;20.77;;;13.10;;
20093;SDS011;10206;48.012;10.030;2022-12-07T03:21:34;18.70;;;12.80;;
20093;SDS011;10206;48.012;10.030;2022-12-07T03:24:10;21.27;;;13.97;;
20093;SDS011;10206;48.012;10.030;2022-12-07T03:26:44;17.20;;;12.10;;
20093;SDS011;10206;48.012;10.030;2022-12-07T03:29:24;18.57;;;11.90;;
20093;SDS011;10206;48.012;10.030;2022-12-07T03:35:03;22.60;;;13.93;;
20093;SDS011;10206;48.012;10.030;2022-12-07T03:37:34;19.53;;;12.03;;
20093;SDS011;10206;48.012;10.030;2022-12-07T03:42:40;20.33;;;12.17;;
20093;SDS011;10206;48.012;10.030;2022-12-07T03:45:07;17.00;;;11.10;;
20093;SDS011;10206;48.012;10.030;2022-12-07T03:47:43;16.73;;;11.83;;
20093;SDS011;10206;48.012;10.030;2022-12-07T03:50:26;18.23;;;10.97;;
20093;SDS011;10206;48.012;10.030;2022-12-07T03:54:02;17.07;;;11.03;;
20093;SDS011;10206;48.012;10.030;2022-12-07T03:56:16;17.57;;;10.97;;
20093;SDS011;10206;48.012;10.030;2022-12-07T03:58:42;17.93;;;10.40;;
20093;SDS011;10206;48.012;10.030;2022-12-07T04:01:08;17.33;;;10.63;;
20093;SDS011;10206;48.012;10.030;2022-12-07T04:03:35;18.47;;;11.33;;
20093;SDS011;10206;48.012;10.030;2022-12-07T04:06:01;16.07;;;10.63;;
20093;SDS011;10206;48.012;10.030;2022-12-07T04:08:27;18.70;;;10.97;;
20093;SDS011;10206;48.012;10.030;2022-12-07T04:10:53;18.27;;;11.40;;
20093;SDS011;10206;48.012;10.030;2022-12-07T04:13:20;18.17;;;11.17;;
20093;SDS011;10206;48.012;10.030;2022-12-07T04:15:46;18.13;;;11.30;;
20093;SDS011;10206;48.012;10.030;2022-12-07T04:18:12;19.13;;;11.63;;
20093;SDS011;10206;48.012;10.030;2022-12-07T04:20:38;19.10;;;11.97;;
20093;SDS011;10206;48.012;10.030;2022-12-07T04:23:04;17.90;;;11.53;;
20093;SDS011;10206;48.012;10.030;2022-12-07T04:25:33;16.63;;;11.03;;
20093;SDS011;10206;48.012;10.030;2022-12-07T04:27:59;20.50;;;12.53;;
20093;SDS011;10206;48.012;10.030;2022-12-07T04:30:25;21.47;;;13.10;;
20093;SDS011;10206;48.012;10.030;2022-12-07T04:32:51;19.10;;;12.30;;
20093;SDS011;10206;48.012;10.030;2022-12-07T04:35:17;20.20;;;12.67;;
20093;SDS011;10206;48.012;10.030;2022-12-07T04:37:43;21.53;;;14.10;;
20093;SDS011;10206;48.012;10.030;2022-12-07T04:40:10;21.47;;;14.03;;
20093;SDS011;10206;48.012;10.030;2022-12-07T04:42:37;23.17;;;14.03;;
20093;SDS011;10206;48.012;10.030;2022-12-07T04:45:04;18.87;;;12.80;;
20093;SDS011;10206;48.012;10.030;2022-12-07T04:47:30;20.10;;;13.57;;
20093;SDS011;10206;48.012;10.030;2022-12-07T04:49:56;19.53;;;12.77;;
20093;SDS011;10206;48.012;10.030;2022-12-07T04:52:22;19.97;;;12.97;;
20093;SDS011;10206;48.012;10.030;2022-12-07T04:54:49;21.40;;;13.80;;
20093;SDS011;10206;48.012;10.030;2022-12-07T04:57:15;24.83;;;14.13;;
20093;SDS011;10206;48.012;10.030;2022-12-07T04:59:41;21.70;;;13.53;;
20093;SDS011;10206;48.012;10.030;2022-12-07T05:02:07;21.83;;;13.23;;
20093;SDS011;10206;48.012;10.030;2022-12-07T05:04:33;20.40;;;13.10;;
20093;SDS011;10206;48.012;10.030;2022-12-07T05:06:59;20.57;;;12.80;;
20093;SDS011;10206;48.012;10.030;2022-12-07T05:09:25;18.87;;;11.70;;
20093;SDS011;10206;48.012;10.030;2022-12-07T05:11:51;20.17;;;12.07;;
20093;SDS011;10206;48.012;10.030;2022-12-07T05:14:18;19.33;;;11.57;;
20093;SDS011;10206;48.012;10.030;2022-12-07T05:16:46;19.30;;;12.17;;
20093;SDS011;10206;48.012;10.030;2022-12-07T05:19:13;18.90;;;12.10;;
20093;SDS011;10206;48.012;10.030;2022-12-07T05:21:40;21.37;;;12.07;;
20093;SDS011;10206;48.012;10.030;2022-12-07T05:24:07;18.60;;;11.77;;
20093;SDS011;10206;48.012;10.030;2022-12-07T05:26:35;19.70;;;12.13;;
20093;SDS011;10206;48.012;10.030;2022-12-07T05:29:02;20.40;;;12.27;;
20093;SDS011;10206;48.012;10.030;2022-12-07T05:31:28;19.53;;;12.40;;
20093;SDS011;10206;48.012;10.030;2022-12-07T05:33:54;21.33;;;12.60;;
20093;SDS011;10206;48.012;10.030;2022-12-07T05:36:21;19.60;;;12.30;;
20093;SDS011;10206;48.012;10.030;2022-12-07T05:38:47;20.60;;;12.93;;
20093;SDS011;10206;48.012;10.030;2022-12-07T05:41:17;20.70;;;12.53;;
20093;SDS011;10206;48.012;10.030;2022-12-07T05:44:02;21.73;;;12.60;;
20093;SDS011;10206;48.012;10.030;2022-12-07T05:46:29;20.43;;;12.80;;
20093;SDS011;10206;48.012;10.030;2022-12-07T05:48:56;22.60;;;13.73;;
20093;SDS011;10206;48.012;10.030;2022-12-07T05:51:22;20.50;;;14.00;;
20093;SDS011;10206;48.012;10.030;2022-12-07T05:53:48;27.60;;;17.13;;
20093;SDS011;10206;48.012;10.030;2022-12-07T05:56:14;22.63;;;15.70;;
20093;SDS011;10206;48.012;10.030;2022-12-07T05:58:40;25.70;;;16.53;;
20093;SDS011;10206;48.012;10.030;2022-12-07T06:01:25;22.77;;;13.87;;
20093;SDS011;10206;48.012;10.030;2022-12-07T06:03:51;25.60;;;15.90;;
20093;SDS011;10206;48.012;10.030;2022-12-07T06:06:17;23.50;;;14.27;;
20093;SDS011;10206;48.012;10.030;2022-12-07T06:08:44;23.43;;;14.47;;
20093;SDS011;10206;48.012;10.030;2022-12-07T06:11:10;29.10;;;16.53;;
20093;SDS011;10206;48.012;10.030;2022-12-07T06:13:54;26.97;;;16.63;;
20093;SDS011;10206;48.012;10.030;2022-12-07T06:16:20;27.20;;;16.63;;
20093;SDS011;10206;48.012;10.030;2022-12-07T06:18:47;30.60;;;18.97;;
20093;SDS011;10206;48.012;10.030;2022-12-07T06:21:13;40.33;;;24.93;;
20093;SDS011;10206;48.012;10.030;2022-12-07T06:23:39;40.07;;;23.60;;
20093;SDS011;10206;48.012;10.030;2022-12-07T06:26:05;36.43;;;20.70;;
20093;SDS011;10206;48.012;10.030;2022-12-07T06:28:31;34.53;;;20.80;;
20093;SDS011;10206;48.012;10.030;2022-12-07T06:30:58;33.77;;;19.93;;
20093;SDS011;10206;48.012;10.030;2022-12-07T06:33:26;31.40;;;18.83;;
20093;SDS011;10206;48.012;10.030;2022-12-07T06:35:53;32.60;;;18.93;;
20093;SDS011;10206;48.012;10.030;2022-12-07T06:38:20;34.23;;;19.17;;
20093;SDS011;10206;48.012;10.030;2022-12-07T06:40:46;28.90;;;17.67;;
20093;SDS011;10206;48.012;10.030;2022-12-07T06:43:13;27.47;;;17.17;;
20093;SDS011;10206;48.012;10.030;2022-12-07T06:45:40;26.60;;;16.07;;
20093;SDS011;10206;48.012;10.030;2022-12-07T06:48:06;28.90;;;17.43;;
20093;SDS011;10206;48.012;10.030;2022-12-07T06:50:33;27.47;;;16.00;;
20093;SDS011;10206;48.012;10.030;2022-12-07T06:52:59;27.63;;;15.70;;
20093;SDS011;10206;48.012;10.030;2022-12-07T06:55:25;30.10;;;17.00;;
20093;SDS011;10206;48.012;10.030;2022-12-07T06:57:51;26.23;;;16.50;;
20093;SDS011;10206;48.012;10.030;2022-12-07T07:00:17;28.90;;;16.33;;
20093;SDS011;10206;48.012;10.030;2022-12-07T07:02:43;27.93;;;16.50;;
20093;SDS011;10206;48.012;10.030;2022-12-07T07:05:10;26.80;;;16.13;;
20093;SDS011;10206;48.012;10.030;2022-12-07T07:07:36;27.43;;;15.00;;
20093;SDS011;10206;48.012;10.030;2022-12-07T07:10:02;25.37;;;15.13;;
20093;SDS011;10206;48.012;10.030;2022-12-07T07:12:28;27.57;;;15.77;;
20093;SDS011;10206;48.012;10.030;2022-12-07T07:14:54;28.50;;;16.83;;
20093;SDS011;10206;48.012;10.030;2022-12-07T07:17:21;30.73;;;17.93;;
20093;SDS011;10206;48.012;10.030;2022-12-07T07:19:47;29.13;;;17.13;;
20093;SDS011;10206;48.012;10.030;2022-12-07T07:22:13;27.43;;;16.50;;
20093;SDS011;10206;48.012;10.030;2022-12-07T07:24:39;31.33;;;15.93;;
20093;SDS011;10206;48.012;10.030;2022-12-07T07:27:05;28.13;;;16.23;;
20093;SDS011;10206;48.012;10.030;2022-12-07T07:29:32;27.30;;;16.10;;
20093;SDS011;10206;48.012;10.030;2022-12-07T07:31:59;26.73;;;16.00;;
20093;SDS011;10206;48.012;10.030;2022-12-07T07:34:26;30.30;;;16.40;;
20093;SDS011;10206;48.012;10.030;2022-12-07T07:36:52;31.50;;;16.40;;
20093;SDS011;10206;48.012;10.030;2022-12-07T07:39:18;28.13;;;16.47;;
20093;SDS011;10206;48.012;10.030;2022-12-07T07:41:44;30.43;;;16.77;;
20093;SDS011;10206;48.012;10.030;2022-12-07T07:44:11;29.63;;;16.93;;
20093;SDS011;10206;48.012;10.030;2022-12-07T07:46:37;26.97;;;15.53;;
20093;SDS011;10206;48.012;10.030;2022-12-07T07:49:04;29.37;;;16.70;;
20093;SDS011;10206;48.012;10.030;2022-12-07T07:51:30;28.60;;;16.30;;
20093;SDS011;10206;48.012;10.030;2022-12-07T07:53:56;27.13;;;15.70;;
20093;SDS011;10206;48.012;10.030;2022-12-07T07:56:22;28.53;;;15.83;;
20093;SDS011;10206;48.012;10.030;2022-12-07T07:58:51;29.63;;;16.67;;
20093;SDS011;10206;48.012;10.030;2022-12-07T08:01:17;28.57;;;15.83;;
20093;SDS011;10206;48.012;10.030;2022-12-07T08:03:44;28.03;;;16.63;;
20093;SDS011;10206;48.012;10.030;2022-12-07T08:06:12;30.77;;;17.70;;
20093;SDS011;10206;48.012;10.030;2022-12-07T08:08:38;33.67;;;19.83;;
20093;SDS011;10206;48.012;10.030;2022-12-07T08:11:05;39.60;;;23.33;;
20093;SDS011;10206;48.012;10.030;2022-12-07T08:13:32;57.87;;;31.70;;
20093;SDS011;10206;48.012;10.030;2022-12-07T08:15:58;61.43;;;33.93;;
20093;SDS011;10206;48.012;10.030;2022-12-07T08:18:28;42.40;;;24.17;;
20093;SDS011;10206;48.012;10.030;2022-12-07T08:20:58;32.67;;;19.30;;
20093;SDS011;10206;48.012;10.030;2022-12-07T08:23:26;32.13;;;18.30;;
20093;SDS011;10206;48.012;10.030;2022-12-07T08:25:52;28.90;;;16.37;;
20093;SDS011;10206;48.012;10.030;2022-12-07T08:28:18;27.90;;;15.97;;
20093;SDS011;10206;48.012;10.030;2022-12-07T08:30:44;27.53;;;15.97;;
20093;SDS011;10206;48.012;10.030;2022-12-07T08:33:10;27.13;;;15.47;;
20093;SDS011;10206;48.012;10.030;2022-12-07T08:35:36;30.33;;;16.23;;
20093;SDS011;10206;48.012;10.030;2022-12-07T08:38:03;25.03;;;14.77;;
20093;SDS011;10206;48.012;10.030;2022-12-07T08:40:29;25.70;;;13.70;;
20093;SDS011;10206;48.012;10.030;2022-12-07T08:42:56;23.20;;;14.27;;
20093;SDS011;10206;48.012;10.030;2022-12-07T08:45:22;26.83;;;15.70;;
20093;SDS011;10206;48.012;10.030;2022-12-07T08:48:00;23.97;;;14.17;;
20093;SDS011;10206;48.012;10.030;2022-12-07T08:50:31;22.40;;;12.97;;
20093;SDS011;10206;48.012;10.030;2022-12-07T08:52:59;25.40;;;14.50;;
20093;SDS011;10206;48.012;10.030;2022-12-07T08:55:26;22.20;;;12.87;;
20093;SDS011;10206;48.012;10.030;2022-12-07T08:57:53;24.43;;;13.50;;
20093;SDS011;10206;48.012;10.030;2022-12-07T09:00:20;29.00;;;14.47;;
20093;SDS011;10206;48.012;10.030;2022-12-07T09:02:46;25.53;;;14.00;;
20093;SDS011;10206;48.012;10.030;2022-12-07T09:05:13;28.90;;;14.90;;
20093;SDS011;10206;48.012;10.030;2022-12-07T09:07:43;24.87;;;13.27;;
20093;SDS011;10206;48.012;10.030;2022-12-07T09:10:11;29.70;;;14.70;;
20093;SDS011;10206;48.012;10.030;2022-12-07T09:12:37;33.67;;;16.10;;
20093;SDS011;10206;48.012;10.030;2022-12-07T09:15:03;29.50;;;16.60;;
20093;SDS011;10206;48.012;10.030;2022-12-07T09:17:31;27.00;;;14.73;;
20093;SDS011;10206;48.012;10.030;2022-12-07T09:19:58;27.67;;;14.73;;
20093;SDS011;10206;48.012;10.030;2022-12-07T09:22:28;27.27;;;15.50;;
20093;SDS011;10206;48.012;10.030;2022-12-07T09:24:55;24.10;;;13.83;;
20093;SDS011;10206;48.012;10.030;2022-12-07T09:27:22;24.57;;;13.27;;
20093;SDS011;10206;48.012;10.030;2022-12-07T09:29:49;23.47;;;13.20;;
20093;SDS011;10206;48.012;10.030;2022-12-07T09:32:15;22.10;;;13.17;;
20093;SDS011;10206;48.012;10.030;2022-12-07T09:34:41;24.23;;;14.23;;
20093;SDS011;10206;48.012;10.030;2022-12-07T09:37:07;21.77;;;13.30;;
20093;SDS011;10206;48.012;10.030;2022-12-07T09:39:33;25.87;;;14.10;;
20093;SDS011;10206;48.012;10.030;2022-12-07T09:41:59;27.70;;;14.20;;
20093;SDS011;10206;48.012;10.030;2022-12-07T09:44:29;27.43;;;14.43;;
20093;SDS011;10206;48.012;10.030;2022-12-07T09:46:56;22.87;;;12.93;;
20093;SDS011;10206;48.012;10.030;2022-12-07T09:49:24;24.07;;;14.00;;
20093;SDS011;10206;48.012;10.030;2022-12-07T09:52:02;24.30;;;14.03;;
20093;SDS011;10206;48.012;10.030;2022-12-07T09:54:29;21.83;;;12.80;;
20093;SDS011;10206;48.012;10.030;2022-12-07T09:56:58;25.17;;;13.77;;
20093;SDS011;10206;48.012;10.030;2022-12-07T09:59:25;23.23;;;13.53;;
20093;SDS011;10206;48.012;10.030;2022-12-07T10:01:51;19.27;;;12.40;;
20093;SDS011;10206;48.012;10.030;2022-12-07T10:04:19;18.37;;;11.30;;
20093;SDS011;10206;48.012;10.030;2022-12-07T10:06:47;18.57;;;11.70;;
20093;SDS011;10206;48.012;10.030;2022-12-07T10:09:14;18.23;;;11.60;;
20093;SDS011;10206;48.012;10.030;2022-12-07T10:12:00;19.43;;;12.53;;
20093;SDS011;10206;48.012;10.030;2022-12-07T10:14:29;17.83;;;11.67;;
20093;SDS011;10206;48.012;10.030;2022-12-07T10:16:57;24.07;;;13.13;;
20093;SDS011;10206;48.012;10.030;2022-12-07T10:22:11;19.80;;;11.83;;
20093;SDS011;10206;48.012;10.030;2022-12-07T10:24:40;18.13;;;10.83;;
20093;SDS011;10206;48.012;10.030;2022-12-07T10:27:17;18.80;;;12.07;;
20093;SDS011;10206;48.012;10.030;2022-12-07T10:29:47;20.00;;;11.77;;
20093;SDS011;10206;48.012;10.030;2022-12-07T10:34:42;21.50;;;13.07;;
20093;SDS011;10206;48.012;10.030;2022-12-07T10:42:31;19.20;;;11.37;;
20093;SDS011;10206;48.012;10.030;2022-12-07T10:53:00;18.73;;;12.03;;
20093;SDS011;10206;48.012;10.030;2022-12-07T10:55:58;20.60;;;12.80;;
20093;SDS011;10206;48.012;10.030;2022-12-07T11:01:28;20.80;;;13.33;;
20093;SDS011;10206;48.012;10.030;2022-12-07T11:25:42;21.27;;;13.33;;
20093;SDS011;10206;48.012;10.030;2022-12-07T11:31:14;23.23;;;15.03;;
20093;SDS011;10206;48.012;10.030;2022-12-07T11:33:57;21.63;;;13.93;;
20093;SDS011;10206;48.012;10.030;2022-12-07T11:36:40;24.03;;;15.27;;
20093;SDS011;10206;48.012;10.030;2022-12-07T11:42:00;21.10;;;12.60;;
20093;SDS011;10206;48.012;10.030;2022-12-07T11:47:18;20.13;;;12.23;;
20093;SDS011;10206;48.012;10.030;2022-12-07T11:55:05;15.60;;;10.37;;
20093;SDS011;10206;48.012;10.030;2022-12-07T11:57:45;17.80;;;10.97;;
20093;SDS011;10206;48.012;10.030;2022-12-07T12:00:15;15.77;;;11.00;;
20093;SDS011;10206;48.012;10.030;2022-12-07T12:05:40;18.13;;;11.20;;
20093;SDS011;10206;48.012;10.030;2022-12-07T12:08:13;17.37;;;11.83;;
20093;SDS011;10206;48.012;10.030;2022-12-07T12:16:38;16.87;;;11.60;;
20093;SDS011;10206;48.012;10.030;2022-12-07T12:22:04;15.70;;;10.70;;
20093;SDS011;10206;48.012;10.030;2022-12-07T12:24:43;14.03;;;10.53;;
20093;SDS011;10206;48.012;10.030;2022-12-07T12:27:24;16.43;;;11.10;;
20093;SDS011;10206;48.012;10.030;2022-12-07T12:30:01;15.00;;;9.80;;
20093;SDS011;10206;48.012;10.030;2022-12-07T12:38:47;16.63;;;10.90;;
20093;SDS011;10206;48.012;10.030;2022-12-07T12:40:53;14.63;;;10.17;;
20093;SDS011;10206;48.012;10.030;2022-12-07T12:43:43;14.83;;;9.83;;
20093;SDS011;10206;48.012;10.030;2022-12-07T12:51:43;14.73;;;9.83;;
20093;SDS011;10206;48.012;10.030;2022-12-07T12:54:15;17.73;;;11.17;;
20093;SDS011;10206;48.012;10.030;2022-12-07T12:57:32;12.97;;;9.40;;
20093;SDS011;10206;48.012;10.030;2022-12-07T12:59:59;15.20;;;10.40;;
20093;SDS011;10206;48.012;10.030;2022-12-07T13:02:32;15.63;;;11.07;;
20093;SDS011;10206;48.012;10.030;2022-12-07T13:05:02;14.87;;;10.23;;
20093;SDS011;10206;48.012;10.030;2022-12-07T13:23:39;20.77;;;12.80;;
20093;SDS011;10206;48.012;10.030;2022-12-07T13:29:15;17.33;;;11.70;;
20093;SDS011;10206;48.012;10.030;2022-12-07T13:31:46;16.47;;;11.57;;
20093;SDS011;10206;48.012;10.030;2022-12-07T13:34:33;17.60;;;12.13;;
20093;SDS011;10206;48.012;10.030;2022-12-07T13:37:24;17.67;;;12.10;;
20093;SDS011;10206;48.012;10.030;2022-12-07T13:39:52;17.93;;;12.33;;
20093;SDS011;10206;48.012;10.030;2022-12-07T13:42:26;15.13;;;10.87;;
20093;SDS011;10206;48.012;10.030;2022-12-07T13:44:57;15.77;;;11.50;;
20093;SDS011;10206;48.012;10.030;2022-12-07T13:50:31;16.50;;;10.87;;
20093;SDS011;10206;48.012;10.030;2022-12-07T13:52:57;14.00;;;10.10;;
20093;SDS011;10206;48.012;10.030;2022-12-07T13:55:25;15.43;;;10.03;;
20093;SDS011;10206;48.012;10.030;2022-12-07T13:57:52;16.30;;;10.47;;
20093;SDS011;10206;48.012;10.030;2022-12-07T14:00:20;14.50;;;9.90;;
20093;SDS011;10206;48.012;10.030;2022-12-07T14:03:01;14.53;;;10.40;;
20093;SDS011;10206;48.012;10.030;2022-12-07T14:05:38;15.93;;;11.10;;
20093;SDS011;10206;48.012;10.030;2022-12-07T14:08:20;16.50;;;10.67;;
20093;SDS011;10206;48.012;10.030;2022-12-07T14:15:59;17.03;;;10.77;;
20093;SDS011;10206;48.012;10.030;2022-12-07T14:18:37;16.90;;;10.57;;
20093;SDS011;10206;48.012;10.030;2022-12-07T14:21:06;16.47;;;10.53;;
20093;SDS011;10206;48.012;10.030;2022-12-07T14:23:36;14.50;;;10.13;;
20093;SDS011;10206;48.012;10.030;2022-12-07T14:28:39;12.83;;;9.80;;
20093;SDS011;10206;48.012;10.030;2022-12-07T14:31:11;19.30;;;11.23;;
20093;SDS011;10206;48.012;10.030;2022-12-07T14:33:45;14.57;;;10.53;;
20093;SDS011;10206;48.012;10.030;2022-12-07T14:36:12;17.03;;;10.77;;
20093;SDS011;10206;48.012;10.030;2022-12-07T14:38:39;16.03;;;10.53;;
20093;SDS011;10206;48.012;10.030;2022-12-07T14:41:15;16.57;;;11.03;;
20093;SDS011;10206;48.012;10.030;2022-12-07T14:44:09;16.50;;;10.80;;
20093;SDS011;10206;48.012;10.030;2022-12-07T14:46:37;17.27;;;11.30;;
20093;SDS011;10206;48.012;10.030;2022-12-07T14:49:03;18.60;;;12.10;;
20093;SDS011;10206;48.012;10.030;2022-12-07T14:51:29;17.40;;;11.47;;
20093;SDS011;10206;48.012;10.030;2022-12-07T14:53:55;18.00;;;11.73;;
20093;SDS011;10206;48.012;10.030;2022-12-07T14:56:21;17.30;;;11.23;;
20093;SDS011;10206;48.012;10.030;2022-12-07T14:58:47;21.40;;;12.93;;
20093;SDS011;10206;48.012;10.030;2022-12-07T15:01:13;18.60;;;11.67;;
20093;SDS011;10206;48.012;10.030;2022-12-07T15:03:39;19.30;;;11.27;;
20093;SDS011;10206;48.012;10.030;2022-12-07T15:06:06;18.37;;;11.67;;
20093;SDS011;10206;48.012;10.030;2022-12-07T15:08:32;19.23;;;12.00;;
20093;SDS011;10206;48.012;10.030;2022-12-07T15:10:58;17.20;;;11.37;;
20093;SDS011;10206;48.012;10.030;2022-12-07T15:13:24;22.70;;;12.67;;
20093;SDS011;10206;48.012;10.030;2022-12-07T15:16:13;20.00;;;12.97;;
20093;SDS011;10206;48.012;10.030;2022-12-07T15:18:42;19.93;;;13.17;;
20093;SDS011;10206;48.012;10.030;2022-12-07T15:21:15;19.63;;;12.57;;
20093;SDS011;10206;48.012;10.030;2022-12-07T15:23:41;21.20;;;13.90;;
20093;SDS011;10206;48.012;10.030;2022-12-07T15:26:09;19.37;;;12.43;;
20093;SDS011;10206;48.012;10.030;2022-12-07T15:28:36;20.00;;;12.53;;
20093;SDS011;10206;48.012;10.030;2022-12-07T15:31:02;21.70;;;13.77;;
20093;SDS011;10206;48.012;10.030;2022-12-07T15:33:28;29.63;;;16.50;;
20093;SDS011;10206;48.012;10.030;2022-12-07T15:35:54;34.83;;;20.37;;
20093;SDS011;10206;48.012;10.030;2022-12-07T15:38:20;28.40;;;17.33;;
20093;SDS011;10206;48.012;10.030;2022-12-07T15:40:47;28.97;;;17.40;;
20093;SDS011;10206;48.012;10.030;2022-12-07T15:43:14;31.83;;;20.37;;
20093;SDS011;10206;48.012;10.030;2022-12-07T15:45:59;29.57;;;19.27;;
20093;SDS011;10206;48.012;10.030;2022-12-07T15:48:25;30.23;;;18.57;;
20093;SDS011;10206;48.012;10.030;2022-12-07T15:50:51;27.70;;;17.37;;
20093;SDS011;10206;48.012;10.030;2022-12-07T15:53:17;26.53;;;17.67;;
20093;SDS011;10206;48.012;10.030;2022-12-07T15:55:43;28.53;;;18.33;;
20093;SDS011;10206;48.012;10.030;2022-12-07T15:58:09;38.80;;;20.87;;
20093;SDS011;10206;48.012;10.030;2022-12-07T16:00:35;59.80;;;28.90;;
20093;SDS011;10206;48.012;10.030;2022-12-07T16:03:01;60.23;;;27.83;;
20093;SDS011;10206;48.012;10.030;2022-12-07T16:05:27;49.13;;;24.60;;
20093;SDS011;10206;48.012;10.030;2022-12-07T16:07:53;33.50;;;19.23;;
20093;SDS011;10206;48.012;10.030;2022-12-07T16:10:19;30.47;;;17.90;;
20093;SDS011;10206;48.012;10.030;2022-12-07T16:12:45;34.10;;;19.20;;
20093;SDS011;10206;48.012;10.030;2022-12-07T16:15:12;31.07;;;17.03;;
20093;SDS011;10206;48.012;10.030;2022-12-07T16:17:38;31.03;;;17.67;;
20093;SDS011;10206;48.012;10.030;2022-12-07T16:20:04;29.97;;;17.00;;
20093;SDS011;10206;48.012;10.030;2022-12-07T16:22:31;29.27;;;16.50;;
20093;SDS011;10206;48.012;10.030;2022-12-07T16:24:57;27.47;;;16.40;;
20093;SDS011;10206;48.012;10.030;2022-12-07T16:27:23;27.83;;;16.23;;
20093;SDS011;10206;48.012;10.030;2022-12-07T16:29:49;30.03;;;17.07;;
20093;SDS011;10206;48.012;10.030;2022-12-07T16:32:15;28.27;;;17.10;;
20093;SDS011;10206;48.012;10.030;2022-12-07T16:34:41;30.90;;;17.50;;
20093;SDS011;10206;48.012;10.030;2022-12-07T16:37:07;33.10;;;18.63;;
20093;SDS011;10206;48.012;10.030;2022-12-07T16:39:33;37.30;;;21.00;;
20093;SDS011;10206;48.012;10.030;2022-12-07T16:41:59;36.53;;;20.17;;
20093;SDS011;10206;48.012;10.030;2022-12-07T16:44:26;38.60;;;19.80;;
20093;SDS011;10206;48.012;10.030;2022-12-07T16:46:52;30.37;;;17.37;;
20093;SDS011;10206;48.012;10.030;2022-12-07T16:49:18;35.63;;;20.60;;